Okazaki, Japan
Current Conditions -  °F | °C
As of 4:30 PM on Monday 22 Dec 2014 (Local Time) from RJGG Reporting Station
Scattered Clouds Scattered Clouds  
Wind Chill: 33°   Ceiling: Unl
Heat Index: 43°   Visibility: 6mi
Dew Point: 25°   Wind: 28mph
Humidity: 49%   Direction: 280°W
Pressure: 30"   Gusts: NA
Location:  34.96°N, 137.16°E
Report Text: RJGG 220730Z 28024KT 9999 FEW030 SCT050 06/M04 Q1016 NOSIG
Loading
Personal Weather Stations






























Interactive Weather Map New forecast layout! Learn more

10-Day Weather Forecast

Advertisements
Track Severe Weather on mobile